Terminal Aerodrome Forecast
Issued by NWS

Home | Current Version | Previous Version | Text Only | Print | Product List | Glossary On
Versions: 1 2 3 4 5 6 7 8 9 10 11 12 13 14 15 16 17 18 19 20 21 22 23 24 25 26 27
000
FTUS44 KHGX 292122 AAA
TAFUTS
TAF AMD
KUTS 292122Z 2921/3018 15009G22KT P6SM FEW045 FEW090
      TEMPO 2921/2924 TSRA BKN025CB
     FM300000 17010KT P6SM VCTS BKN035CB
     FM300600 18008KT 5SM TSRA BKN015CB
     FM301400 19005KT P6SM VCTS BKN015CB=

USA.gov is the U.S. government's official web portal to all federal, state and local government web resources and services.